Time,TemperatureF,DewpointF,PressureIn,WindDirection,WindDirectionDegrees,WindSpeedMPH,WindSpeedGustMPH,Humidity,HourlyPrecipIn,Conditions,Clouds,dailyrainin,SolarRadiationWatts/m^2,SoftwareType,DateUTC
2013-11-08 00:22:00,47.0,24.0,-100.00,ESE,106,2.0,5.0,40,0.00,,,0.00,0.000000,,2013-11-08 08:22:00,
2013-11-08 00:32:00,47.0,24.0,-100.00,ESE,106,2.0,5.0,40,0.00,,,0.00,0.000000,,2013-11-08 08:32:00,
2013-11-08 00:42:00,47.0,24.0,-100.00,ESE,106,2.0,5.0,40,0.00,,,0.00,0.000000,,2013-11-08 08:42:00,
2013-11-08 00:52:00,47.0,24.0,-100.00,ESE,106,2.0,5.0,40,0.00,,,0.00,0.000000,,2013-11-08 08:52:00,
2013-11-08 01:22:00,46.0,24.0,-100.00,East,94,0.0,7.0,41,0.00,,,0.00,0.000000,,2013-11-08 09:22:00,
2013-11-08 01:33:00,46.0,24.0,-100.00,East,94,0.0,7.0,41,0.00,,,0.00,0.000000,,2013-11-08 09:33:00,
2013-11-08 01:43:00,46.0,24.0,-100.00,East,94,0.0,7.0,41,0.00,,,0.00,0.000000,,2013-11-08 09:43:00,
2013-11-08 01:53:00,46.0,24.0,-100.00,East,94,0.0,7.0,41,0.00,,,0.00,0.000000,,2013-11-08 09:53:00,
2013-11-08 02:23:00,49.0,25.0,-100.00,East,99,1.0,5.0,39,0.00,,,0.00,0.000000,,2013-11-08 10:23:00,
2013-11-08 02:33:00,49.0,25.0,-100.00,East,99,1.0,5.0,39,0.00,,,0.00,0.000000,,2013-11-08 10:33:00,
2013-11-08 02:42:00,49.0,25.0,-100.00,East,99,1.0,5.0,39,0.00,,,0.00,0.000000,,2013-11-08 10:42:00,
2013-11-08 02:53:00,49.0,25.0,-100.00,East,99,1.0,5.0,39,0.00,,,0.00,0.000000,,2013-11-08 10:53:00,
2013-11-08 03:22:00,45.0,23.0,-100.00,ESE,107,1.0,5.0,42,0.00,,,0.00,0.000000,,2013-11-08 11:22:00,
2013-11-08 03:33:00,45.0,23.0,-100.00,ESE,107,1.0,5.0,42,0.00,,,0.00,0.000000,,2013-11-08 11:33:00,
2013-11-08 03:42:00,45.0,23.0,-100.00,ESE,107,1.0,5.0,42,0.00,,,0.00,0.000000,,2013-11-08 11:42:00,
2013-11-08 03:52:00,45.0,23.0,-100.00,ESE,107,1.0,5.0,42,0.00,,,0.00,0.000000,,2013-11-08 11:52:00,
2013-11-08 04:21:00,47.0,26.0,-100.00,ESE,102,1.0,5.0,43,0.00,,,0.00,0.000000,,2013-11-08 12:21:00,
2013-11-08 04:32:00,47.0,26.0,-100.00,ESE,102,1.0,5.0,43,0.00,,,0.00,0.000000,,2013-11-08 12:32:00,
2013-11-08 04:42:00,47.0,26.0,-100.00,ESE,102,1.0,5.0,43,0.00,,,0.00,0.000000,,2013-11-08 12:42:00,
2013-11-08 04:52:00,47.0,26.0,-100.00,ESE,102,1.0,5.0,43,0.00,,,0.00,0.000000,,2013-11-08 12:52:00,
2013-11-08 05:21:00,45.0,23.0,-100.00,East,89,0.0,5.0,41,0.00,,,0.00,0.000000,,2013-11-08 13:21:00,
2013-11-08 05:32:00,45.0,23.0,-100.00,East,89,0.0,5.0,41,0.00,,,0.00,0.000000,,2013-11-08 13:32:00,
2013-11-08 05:42:00,45.0,23.0,-100.00,East,89,0.0,5.0,41,0.00,,,0.00,0.000000,,2013-11-08 13:42:00,
2013-11-08 05:52:00,45.0,23.0,-100.00,East,89,0.0,5.0,41,0.00,,,0.00,0.000000,,2013-11-08 13:52:00,
2013-11-08 06:21:00,44.0,23.0,-100.00,ESE,103,0.0,5.0,43,0.00,,,0.00,0.000000,,2013-11-08 14:21:00,
2013-11-08 06:32:00,44.0,23.0,-100.00,ESE,103,0.0,5.0,43,0.00,,,0.00,0.000000,,2013-11-08 14:32:00,
2013-11-08 06:42:00,44.0,23.0,-100.00,ESE,103,0.0,5.0,43,0.00,,,0.00,0.000000,,2013-11-08 14:42:00,
2013-11-08 06:52:00,44.0,23.0,-100.00,ESE,103,0.0,5.0,43,0.00,,,0.00,0.000000,,2013-11-08 14:52:00,
2013-11-08 07:22:00,46.0,24.0,-100.00,East,94,0.0,5.0,42,0.00,,,-99.99,5.000000,,2013-11-08 15:22:00,
2013-11-08 07:33:00,46.0,24.0,-100.00,East,94,0.0,5.0,42,0.00,,,-99.99,5.000000,,2013-11-08 15:33:00,
2013-11-08 07:43:00,46.0,24.0,-100.00,East,94,0.0,5.0,42,0.00,,,-99.99,5.000000,,2013-11-08 15:43:00,
2013-11-08 07:53:00,46.0,24.0,-100.00,East,94,0.0,5.0,42,0.00,,,-99.99,5.000000,,2013-11-08 15:53:00,
2013-11-08 11:52:00,69.0,29.0,-100.00,WSW,241,4.0,6.0,22,-99.99,,,0.00,739.000000,,2013-11-08 19:52:00,
2013-11-08 12:22:00,71.0,30.0,-100.00,WSW,251,3.0,8.0,22,0.00,,,0.00,786.000000,,2013-11-08 20:22:00,
2013-11-08 12:32:00,71.0,30.0,-100.00,WSW,251,3.0,8.0,22,0.00,,,0.00,786.000000,,2013-11-08 20:32:00,
2013-11-08 12:42:00,71.0,30.0,-100.00,WSW,251,3.0,8.0,22,0.00,,,0.00,786.000000,,2013-11-08 20:42:00,
2013-11-08 12:52:00,71.0,30.0,-100.00,WSW,251,3.0,8.0,22,0.00,,,0.00,786.000000,,2013-11-08 20:52:00,
2013-11-08 13:22:00,70.0,30.0,-100.00,NNW,339,3.0,8.0,23,-99.99,,,0.00,751.000000,,2013-11-08 21:22:00,
2013-11-08 13:33:00,70.0,30.0,-100.00,NNW,339,3.0,8.0,23,-99.99,,,0.00,751.000000,,2013-11-08 21:33:00,
2013-11-08 13:44:00,70.0,30.0,-100.00,NNW,339,3.0,8.0,23,-99.99,,,0.00,751.000000,,2013-11-08 21:44:00,
2013-11-08 13:54:00,70.0,30.0,-100.00,NNW,339,3.0,8.0,23,-99.99,,,0.00,751.000000,,2013-11-08 21:54:00,
2013-11-08 14:23:00,70.0,30.0,-100.00,West,263,3.0,9.0,23,0.00,,,0.00,659.000000,,2013-11-08 22:23:00,
2013-11-08 14:32:00,70.0,30.0,-100.00,West,263,3.0,9.0,23,0.00,,,0.00,659.000000,,2013-11-08 22:32:00,
2013-11-08 14:43:00,70.0,30.0,-100.00,West,263,3.0,9.0,23,0.00,,,0.00,659.000000,,2013-11-08 22:43:00,
2013-11-08 14:53:00,70.0,30.0,-100.00,West,263,3.0,9.0,23,0.00,,,0.00,659.000000,,2013-11-08 22:53:00,
2013-11-08 15:22:00,71.0,32.0,-100.00,WSW,253,2.0,8.0,24,0.00,,,0.00,498.000000,,2013-11-08 23:22:00,
2013-11-08 15:34:00,71.0,32.0,-100.00,WSW,253,2.0,8.0,24,0.00,,,0.00,498.000000,,2013-11-08 23:34:00,
2013-11-08 15:42:00,71.0,32.0,-100.00,WSW,253,2.0,8.0,24,0.00,,,0.00,498.000000,,2013-11-08 23:42:00,
2013-11-08 15:53:00,71.0,32.0,-100.00,WSW,253,2.0,8.0,24,0.00,,,0.00,498.000000,,2013-11-08 23:53:00,
2013-11-08 16:21:00,68.0,31.0,-100.00,West,276,0.0,7.0,25,0.00,,,0.00,298.000000,,2013-11-09 00:21:00,
2013-11-08 16:32:00,68.0,31.0,-100.00,West,276,0.0,7.0,25,0.00,,,0.00,298.000000,,2013-11-09 00:32:00,
2013-11-08 16:42:00,68.0,31.0,-100.00,West,276,0.0,7.0,25,0.00,,,0.00,298.000000,,2013-11-09 00:42:00,
2013-11-08 16:52:00,68.0,31.0,-100.00,West,276,0.0,7.0,25,0.00,,,0.00,298.000000,,2013-11-09 00:52:00,
2013-11-08 17:22:00,57.0,30.0,-100.00,East,91,0.0,5.0,36,0.00,,,-99.99,76.000000,,2013-11-09 01:22:00,
2013-11-08 17:32:00,57.0,30.0,-100.00,East,91,0.0,5.0,36,0.00,,,-99.99,76.000000,,2013-11-09 01:32:00,
2013-11-08 17:42:00,57.0,30.0,-100.00,East,91,0.0,5.0,36,0.00,,,-99.99,76.000000,,2013-11-09 01:42:00,
2013-11-08 17:52:00,57.0,30.0,-100.00,East,91,0.0,5.0,36,0.00,,,-99.99,76.000000,,2013-11-09 01:52:00,
2013-11-08 18:22:00,52.0,31.0,-100.00,East,95,0.0,2.0,44,0.00,,,0.00,0.000000,,2013-11-09 02:22:00,
2013-11-08 18:32:00,52.0,31.0,-100.00,East,95,0.0,2.0,44,0.00,,,0.00,0.000000,,2013-11-09 02:32:00,
2013-11-08 18:42:00,52.0,31.0,-100.00,East,95,0.0,2.0,44,0.00,,,0.00,0.000000,,2013-11-09 02:42:00,
2013-11-08 18:52:00,52.0,31.0,-100.00,East,95,0.0,2.0,44,0.00,,,0.00,0.000000,,2013-11-09 02:52:00,
2013-11-08 19:22:00,51.0,26.0,-100.00,ESE,106,3.0,5.0,37,0.00,,,0.00,0.000000,,2013-11-09 03:22:00,
2013-11-08 19:34:00,51.0,26.0,-100.00,ESE,106,3.0,5.0,37,0.00,,,0.00,0.000000,,2013-11-09 03:34:00,
2013-11-08 19:44:00,51.0,26.0,-100.00,ESE,106,3.0,5.0,37,0.00,,,0.00,0.000000,,2013-11-09 03:44:00,
2013-11-08 19:54:00,51.0,26.0,-100.00,ESE,106,3.0,5.0,37,0.00,,,0.00,0.000000,,2013-11-09 03:54:00,
2013-11-08 20:23:00,50.0,26.0,-100.00,East,88,0.0,7.0,39,0.00,,,0.00,0.000000,,2013-11-09 04:23:00,
2013-11-08 20:34:00,50.0,26.0,-100.00,East,88,0.0,7.0,39,0.00,,,0.00,0.000000,,2013-11-09 04:34:00,
2013-11-08 20:42:00,50.0,26.0,-100.00,East,88,0.0,7.0,39,0.00,,,0.00,0.000000,,2013-11-09 04:42:00,
2013-11-08 20:53:00,50.0,26.0,-100.00,East,88,0.0,7.0,39,0.00,,,0.00,0.000000,,2013-11-09 04:53:00,
2013-11-08 21:22:00,49.0,26.0,-100.00,East,97,0.0,4.0,40,0.00,,,-99.99,0.000000,,2013-11-09 05:22:00,
2013-11-08 21:34:00,49.0,26.0,-100.00,East,97,0.0,4.0,40,0.00,,,-99.99,0.000000,,2013-11-09 05:34:00,
2013-11-08 21:43:00,49.0,26.0,-100.00,East,97,0.0,4.0,40,0.00,,,-99.99,0.000000,,2013-11-09 05:43:00,
2013-11-08 21:53:00,49.0,26.0,-100.00,East,97,0.0,4.0,40,0.00,,,-99.99,0.000000,,2013-11-09 05:53:00,
2013-11-08 22:22:00,47.0,26.0,-100.00,East,88,0.0,5.0,44,0.00,,,0.00,0.000000,,2013-11-09 06:22:00,
2013-11-08 22:33:00,47.0,26.0,-100.00,East,88,0.0,5.0,44,0.00,,,0.00,0.000000,,2013-11-09 06:33:00,
2013-11-08 22:43:00,47.0,26.0,-100.00,East,88,0.0,5.0,44,0.00,,,0.00,0.000000,,2013-11-09 06:43:00,
2013-11-08 22:54:00,47.0,26.0,-100.00,East,88,0.0,5.0,44,0.00,,,0.00,0.000000,,2013-11-09 06:54:00,
2013-11-08 23:21:00,47.0,25.0,-100.00,ESE,108,1.0,4.0,42,0.00,,,0.00,0.000000,,2013-11-09 07:21:00,
2013-11-08 23:33:00,47.0,25.0,-100.00,ESE,108,1.0,4.0,42,0.00,,,0.00,0.000000,,2013-11-09 07:33:00,
2013-11-08 23:42:00,47.0,25.0,-100.00,ESE,108,1.0,4.0,42,0.00,,,0.00,0.000000,,2013-11-09 07:42:00,
2013-11-08 23:52:00,47.0,25.0,-100.00,ESE,108,1.0,4.0,42,0.00,,,0.00,0.000000,,2013-11-09 07:52:00,